sensor_id;sensor_type;location;lat;lon;timestamp;P1;durP1;ratioP1;P2;durP2;ratioP2
21046;SDS011;10682;50.874;3.656;2022-09-03T00:00:51;13.52;;;9.27;;
21046;SDS011;10682;50.874;3.656;2022-09-03T00:03:30;14.45;;;10.45;;
21046;SDS011;10682;50.874;3.656;2022-09-03T00:09:06;12.48;;;9.05;;
21046;SDS011;10682;50.874;3.656;2022-09-03T00:11:54;12.77;;;9.50;;
21046;SDS011;10682;50.874;3.656;2022-09-03T00:14:33;11.68;;;8.73;;
21046;SDS011;10682;50.874;3.656;2022-09-03T00:17:14;13.20;;;9.10;;
21046;SDS011;10682;50.874;3.656;2022-09-03T00:19:55;11.27;;;8.48;;
21046;SDS011;10682;50.874;3.656;2022-09-03T00:22:31;10.57;;;7.50;;
21046;SDS011;10682;50.874;3.656;2022-09-03T00:25:04;9.43;;;7.20;;
21046;SDS011;10682;50.874;3.656;2022-09-03T00:27:39;9.23;;;7.68;;
21046;SDS011;10682;50.874;3.656;2022-09-03T00:30:11;15.65;;;8.95;;
21046;SDS011;10682;50.874;3.656;2022-09-03T00:32:47;13.63;;;9.48;;
21046;SDS011;10682;50.874;3.656;2022-09-03T00:35:26;11.15;;;8.57;;
21046;SDS011;10682;50.874;3.656;2022-09-03T00:38:01;16.38;;;9.68;;
21046;SDS011;10682;50.874;3.656;2022-09-03T00:46:33;12.68;;;7.82;;
21046;SDS011;10682;50.874;3.656;2022-09-03T01:00:35;14.63;;;8.82;;
21046;SDS011;10682;50.874;3.656;2022-09-03T01:03:14;13.13;;;8.48;;
21046;SDS011;10682;50.874;3.656;2022-09-03T01:06:31;14.90;;;9.23;;
21046;SDS011;10682;50.874;3.656;2022-09-03T01:12:04;12.32;;;8.43;;
21046;SDS011;10682;50.874;3.656;2022-09-03T01:26:17;12.65;;;9.20;;
21046;SDS011;10682;50.874;3.656;2022-09-03T01:31:55;13.57;;;10.20;;
21046;SDS011;10682;50.874;3.656;2022-09-03T01:40:49;14.45;;;10.77;;
21046;SDS011;10682;50.874;3.656;2022-09-03T01:44:24;16.23;;;11.20;;
21046;SDS011;10682;50.874;3.656;2022-09-03T01:59:10;12.55;;;10.25;;
21046;SDS011;10682;50.874;3.656;2022-09-03T02:04:55;12.88;;;10.07;;
21046;SDS011;10682;50.874;3.656;2022-09-03T02:07:28;14.98;;;11.10;;
21046;SDS011;10682;50.874;3.656;2022-09-03T02:10:04;15.52;;;10.88;;
21046;SDS011;10682;50.874;3.656;2022-09-03T02:12:36;17.80;;;11.05;;
21046;SDS011;10682;50.874;3.656;2022-09-03T02:15:13;14.32;;;9.05;;
21046;SDS011;10682;50.874;3.656;2022-09-03T02:17:44;15.77;;;10.20;;
21046;SDS011;10682;50.874;3.656;2022-09-03T02:20:16;17.35;;;11.18;;
21046;SDS011;10682;50.874;3.656;2022-09-03T02:22:47;15.55;;;11.55;;
21046;SDS011;10682;50.874;3.656;2022-09-03T02:25:15;15.15;;;11.13;;
21046;SDS011;10682;50.874;3.656;2022-09-03T02:27:43;15.13;;;9.90;;
21046;SDS011;10682;50.874;3.656;2022-09-03T02:30:10;14.25;;;9.93;;
21046;SDS011;10682;50.874;3.656;2022-09-03T02:32:37;12.27;;;9.35;;
21046;SDS011;10682;50.874;3.656;2022-09-03T02:35:05;11.90;;;9.85;;
21046;SDS011;10682;50.874;3.656;2022-09-03T02:37:32;12.50;;;8.85;;
21046;SDS011;10682;50.874;3.656;2022-09-03T02:40:00;12.75;;;8.45;;
21046;SDS011;10682;50.874;3.656;2022-09-03T02:42:31;11.85;;;8.25;;
21046;SDS011;10682;50.874;3.656;2022-09-03T02:47:53;11.38;;;8.57;;
21046;SDS011;10682;50.874;3.656;2022-09-03T02:50:25;14.38;;;8.40;;
21046;SDS011;10682;50.874;3.656;2022-09-03T02:52:52;15.50;;;8.88;;
21046;SDS011;10682;50.874;3.656;2022-09-03T02:55:19;10.18;;;8.07;;
21046;SDS011;10682;50.874;3.656;2022-09-03T02:57:46;12.10;;;7.68;;
21046;SDS011;10682;50.874;3.656;2022-09-03T03:00:13;13.02;;;8.98;;
21046;SDS011;10682;50.874;3.656;2022-09-03T03:02:41;11.57;;;8.93;;
21046;SDS011;10682;50.874;3.656;2022-09-03T03:05:08;14.60;;;9.57;;
21046;SDS011;10682;50.874;3.656;2022-09-03T03:07:44;13.65;;;8.90;;
21046;SDS011;10682;50.874;3.656;2022-09-03T03:10:10;12.32;;;8.60;;
21046;SDS011;10682;50.874;3.656;2022-09-03T03:12:37;11.80;;;8.57;;
21046;SDS011;10682;50.874;3.656;2022-09-03T03:15:05;14.07;;;9.57;;
21046;SDS011;10682;50.874;3.656;2022-09-03T03:17:32;10.75;;;8.70;;
21046;SDS011;10682;50.874;3.656;2022-09-03T03:19:59;13.52;;;9.20;;
21046;SDS011;10682;50.874;3.656;2022-09-03T03:22:26;11.88;;;9.93;;
21046;SDS011;10682;50.874;3.656;2022-09-03T03:24:53;12.43;;;9.27;;
21046;SDS011;10682;50.874;3.656;2022-09-03T03:27:22;13.27;;;9.07;;
21046;SDS011;10682;50.874;3.656;2022-09-03T03:29:49;14.93;;;10.10;;
21046;SDS011;10682;50.874;3.656;2022-09-03T03:32:17;12.60;;;10.30;;
21046;SDS011;10682;50.874;3.656;2022-09-03T03:34:44;12.55;;;10.15;;
21046;SDS011;10682;50.874;3.656;2022-09-03T03:37:11;14.18;;;11.07;;
21046;SDS011;10682;50.874;3.656;2022-09-03T03:39:38;15.88;;;10.90;;
21046;SDS011;10682;50.874;3.656;2022-09-03T03:42:05;16.55;;;10.85;;
21046;SDS011;10682;50.874;3.656;2022-09-03T03:44:34;17.17;;;11.32;;
21046;SDS011;10682;50.874;3.656;2022-09-03T03:47:01;15.90;;;12.57;;
21046;SDS011;10682;50.874;3.656;2022-09-03T03:49:31;17.90;;;13.27;;
21046;SDS011;10682;50.874;3.656;2022-09-03T03:51:58;18.73;;;13.20;;
21046;SDS011;10682;50.874;3.656;2022-09-03T03:54:25;16.13;;;12.43;;
21046;SDS011;10682;50.874;3.656;2022-09-03T03:56:52;18.33;;;12.70;;
21046;SDS011;10682;50.874;3.656;2022-09-03T03:59:21;14.25;;;11.02;;
21046;SDS011;10682;50.874;3.656;2022-09-03T04:01:48;15.07;;;11.90;;
21046;SDS011;10682;50.874;3.656;2022-09-03T04:04:16;17.58;;;11.93;;
21046;SDS011;10682;50.874;3.656;2022-09-03T04:06:43;18.05;;;12.13;;
21046;SDS011;10682;50.874;3.656;2022-09-03T04:09:09;16.05;;;12.25;;
21046;SDS011;10682;50.874;3.656;2022-09-03T04:11:36;22.80;;;12.65;;
21046;SDS011;10682;50.874;3.656;2022-09-03T04:14:04;15.00;;;11.68;;
21046;SDS011;10682;50.874;3.656;2022-09-03T04:16:31;14.80;;;11.32;;
21046;SDS011;10682;50.874;3.656;2022-09-03T04:18:58;17.25;;;12.02;;
21046;SDS011;10682;50.874;3.656;2022-09-03T04:21:25;16.00;;;11.57;;
21046;SDS011;10682;50.874;3.656;2022-09-03T04:23:55;17.52;;;11.98;;
21046;SDS011;10682;50.874;3.656;2022-09-03T04:26:24;18.23;;;11.40;;
21046;SDS011;10682;50.874;3.656;2022-09-03T04:29:01;14.30;;;11.60;;
21046;SDS011;10682;50.874;3.656;2022-09-03T04:31:31;16.35;;;12.15;;
21046;SDS011;10682;50.874;3.656;2022-09-03T04:34:00;17.30;;;12.98;;
21046;SDS011;10682;50.874;3.656;2022-09-03T04:36:28;19.63;;;13.30;;
21046;SDS011;10682;50.874;3.656;2022-09-03T04:38:57;18.60;;;13.70;;
21046;SDS011;10682;50.874;3.656;2022-09-03T04:41:27;18.15;;;13.60;;
21046;SDS011;10682;50.874;3.656;2022-09-03T04:43:57;22.92;;;16.52;;
21046;SDS011;10682;50.874;3.656;2022-09-03T04:46:25;27.27;;;19.27;;
21046;SDS011;10682;50.874;3.656;2022-09-03T04:48:59;33.42;;;20.83;;
21046;SDS011;10682;50.874;3.656;2022-09-03T04:51:26;30.73;;;22.02;;
21046;SDS011;10682;50.874;3.656;2022-09-03T04:53:55;34.15;;;22.58;;
21046;SDS011;10682;50.874;3.656;2022-09-03T04:56:26;41.10;;;24.27;;
21046;SDS011;10682;50.874;3.656;2022-09-03T04:58:57;33.17;;;22.65;;
21046;SDS011;10682;50.874;3.656;2022-09-03T05:01:27;36.58;;;24.17;;
21046;SDS011;10682;50.874;3.656;2022-09-03T05:03:57;37.53;;;24.25;;
21046;SDS011;10682;50.874;3.656;2022-09-03T05:06:26;33.65;;;23.10;;
21046;SDS011;10682;50.874;3.656;2022-09-03T05:08:55;41.97;;;24.70;;
21046;SDS011;10682;50.874;3.656;2022-09-03T05:11:23;37.10;;;23.55;;
21046;SDS011;10682;50.874;3.656;2022-09-03T05:13:52;33.22;;;22.73;;
21046;SDS011;10682;50.874;3.656;2022-09-03T05:16:22;34.40;;;20.90;;
21046;SDS011;10682;50.874;3.656;2022-09-03T05:18:52;32.35;;;20.38;;
21046;SDS011;10682;50.874;3.656;2022-09-03T05:21:21;29.92;;;20.42;;
21046;SDS011;10682;50.874;3.656;2022-09-03T05:23:49;32.90;;;22.60;;
21046;SDS011;10682;50.874;3.656;2022-09-03T05:26:19;32.80;;;21.42;;
21046;SDS011;10682;50.874;3.656;2022-09-03T05:28:51;33.78;;;21.40;;
21046;SDS011;10682;50.874;3.656;2022-09-03T05:31:25;34.45;;;22.02;;
21046;SDS011;10682;50.874;3.656;2022-09-03T05:33:57;39.33;;;23.40;;
21046;SDS011;10682;50.874;3.656;2022-09-03T05:36:29;31.70;;;20.52;;
21046;SDS011;10682;50.874;3.656;2022-09-03T05:39:02;35.05;;;21.38;;
21046;SDS011;10682;50.874;3.656;2022-09-03T05:41:30;32.20;;;21.60;;
21046;SDS011;10682;50.874;3.656;2022-09-03T05:43:59;35.13;;;22.92;;
21046;SDS011;10682;50.874;3.656;2022-09-03T05:46:27;31.83;;;22.58;;
21046;SDS011;10682;50.874;3.656;2022-09-03T05:48:58;41.50;;;23.75;;
21046;SDS011;10682;50.874;3.656;2022-09-03T05:51:27;35.22;;;22.98;;
21046;SDS011;10682;50.874;3.656;2022-09-03T05:53:55;38.90;;;25.30;;
21046;SDS011;10682;50.874;3.656;2022-09-03T05:56:24;41.05;;;25.65;;
21046;SDS011;10682;50.874;3.656;2022-09-03T05:58:53;35.40;;;22.75;;
21046;SDS011;10682;50.874;3.656;2022-09-03T06:01:28;33.97;;;21.52;;
21046;SDS011;10682;50.874;3.656;2022-09-03T06:04:01;37.53;;;24.02;;
21046;SDS011;10682;50.874;3.656;2022-09-03T06:06:32;42.22;;;27.02;;
21046;SDS011;10682;50.874;3.656;2022-09-03T06:09:05;38.53;;;24.13;;
21046;SDS011;10682;50.874;3.656;2022-09-03T06:11:36;35.95;;;23.88;;
21046;SDS011;10682;50.874;3.656;2022-09-03T06:14:08;36.42;;;24.38;;
21046;SDS011;10682;50.874;3.656;2022-09-03T06:16:41;38.00;;;25.02;;
21046;SDS011;10682;50.874;3.656;2022-09-03T06:19:11;36.85;;;25.55;;
21046;SDS011;10682;50.874;3.656;2022-09-03T06:21:41;32.28;;;22.38;;
21046;SDS011;10682;50.874;3.656;2022-09-03T06:24:10;32.70;;;22.05;;
21046;SDS011;10682;50.874;3.656;2022-09-03T06:26:40;29.90;;;20.67;;
21046;SDS011;10682;50.874;3.656;2022-09-03T06:29:08;47.78;;;24.42;;
21046;SDS011;10682;50.874;3.656;2022-09-03T06:31:36;35.38;;;21.45;;
21046;SDS011;10682;50.874;3.656;2022-09-03T06:34:04;32.67;;;22.75;;
21046;SDS011;10682;50.874;3.656;2022-09-03T06:36:31;38.50;;;26.20;;
21046;SDS011;10682;50.874;3.656;2022-09-03T06:38:59;33.55;;;22.77;;
21046;SDS011;10682;50.874;3.656;2022-09-03T06:41:28;27.85;;;19.77;;
21046;SDS011;10682;50.874;3.656;2022-09-03T06:44:01;34.08;;;23.20;;
21046;SDS011;10682;50.874;3.656;2022-09-03T06:46:37;34.72;;;21.58;;
21046;SDS011;10682;50.874;3.656;2022-09-03T06:49:07;25.67;;;17.92;;
21046;SDS011;10682;50.874;3.656;2022-09-03T06:51:36;31.90;;;20.92;;
21046;SDS011;10682;50.874;3.656;2022-09-03T06:54:05;29.45;;;19.20;;
21046;SDS011;10682;50.874;3.656;2022-09-03T06:56:34;28.10;;;19.77;;
21046;SDS011;10682;50.874;3.656;2022-09-03T06:59:10;29.48;;;19.23;;
21046;SDS011;10682;50.874;3.656;2022-09-03T07:01:39;24.05;;;16.50;;
21046;SDS011;10682;50.874;3.656;2022-09-03T07:04:12;25.20;;;17.50;;
21046;SDS011;10682;50.874;3.656;2022-09-03T07:06:45;21.95;;;15.70;;
21046;SDS011;10682;50.874;3.656;2022-09-03T07:09:12;21.50;;;14.75;;
21046;SDS011;10682;50.874;3.656;2022-09-03T07:11:41;21.52;;;14.20;;
21046;SDS011;10682;50.874;3.656;2022-09-03T07:14:13;15.20;;;11.85;;
21046;SDS011;10682;50.874;3.656;2022-09-03T07:16:43;18.65;;;11.25;;
21046;SDS011;10682;50.874;3.656;2022-09-03T07:19:11;14.73;;;10.68;;
21046;SDS011;10682;50.874;3.656;2022-09-03T07:21:39;13.52;;;9.85;;
21046;SDS011;10682;50.874;3.656;2022-09-03T07:24:14;18.15;;;11.40;;
21046;SDS011;10682;50.874;3.656;2022-09-03T07:26:41;13.93;;;10.57;;
21046;SDS011;10682;50.874;3.656;2022-09-03T07:29:15;16.15;;;10.90;;
21046;SDS011;10682;50.874;3.656;2022-09-03T07:31:45;12.43;;;9.57;;
21046;SDS011;10682;50.874;3.656;2022-09-03T07:34:17;15.15;;;9.93;;
21046;SDS011;10682;50.874;3.656;2022-09-03T07:36:45;16.27;;;10.85;;
21046;SDS011;10682;50.874;3.656;2022-09-03T07:39:16;14.95;;;9.57;;
21046;SDS011;10682;50.874;3.656;2022-09-03T07:41:44;12.55;;;9.65;;
21046;SDS011;10682;50.874;3.656;2022-09-03T07:44:12;14.07;;;10.40;;
21046;SDS011;10682;50.874;3.656;2022-09-03T07:46:44;16.08;;;9.77;;
21046;SDS011;10682;50.874;3.656;2022-09-03T07:49:13;15.55;;;9.80;;
21046;SDS011;10682;50.874;3.656;2022-09-03T07:51:40;15.43;;;8.65;;
21046;SDS011;10682;50.874;3.656;2022-09-03T07:54:07;11.13;;;8.85;;
21046;SDS011;10682;50.874;3.656;2022-09-03T07:56:37;13.10;;;8.60;;
21046;SDS011;10682;50.874;3.656;2022-09-03T07:59:05;12.45;;;7.85;;
21046;SDS011;10682;50.874;3.656;2022-09-03T08:01:33;12.93;;;8.13;;
21046;SDS011;10682;50.874;3.656;2022-09-03T08:04:03;11.02;;;8.07;;
21046;SDS011;10682;50.874;3.656;2022-09-03T08:06:38;11.48;;;7.95;;
21046;SDS011;10682;50.874;3.656;2022-09-03T08:09:06;12.57;;;8.25;;
21046;SDS011;10682;50.874;3.656;2022-09-03T08:11:37;12.52;;;7.97;;
21046;SDS011;10682;50.874;3.656;2022-09-03T08:14:07;11.85;;;8.18;;
21046;SDS011;10682;50.874;3.656;2022-09-03T08:16:37;13.02;;;7.90;;
21046;SDS011;10682;50.874;3.656;2022-09-03T08:19:15;11.73;;;7.90;;
21046;SDS011;10682;50.874;3.656;2022-09-03T08:21:43;9.25;;;7.30;;
21046;SDS011;10682;50.874;3.656;2022-09-03T08:24:11;15.60;;;8.25;;
21046;SDS011;10682;50.874;3.656;2022-09-03T08:26:41;12.90;;;8.27;;
21046;SDS011;10682;50.874;3.656;2022-09-03T08:29:16;11.60;;;8.10;;
21046;SDS011;10682;50.874;3.656;2022-09-03T08:31:43;11.18;;;8.02;;
21046;SDS011;10682;50.874;3.656;2022-09-03T08:34:10;23.05;;;8.70;;
21046;SDS011;10682;50.874;3.656;2022-09-03T08:36:39;15.07;;;8.50;;
21046;SDS011;10682;50.874;3.656;2022-09-03T08:39:07;16.08;;;8.77;;
21046;SDS011;10682;50.874;3.656;2022-09-03T08:44:49;11.48;;;8.23;;
21046;SDS011;10682;50.874;3.656;2022-09-03T08:55:28;11.23;;;8.13;;
21046;SDS011;10682;50.874;3.656;2022-09-03T08:58:11;12.55;;;7.97;;
21046;SDS011;10682;50.874;3.656;2022-09-03T09:00:49;12.93;;;9.00;;
21046;SDS011;10682;50.874;3.656;2022-09-03T09:03:51;10.48;;;8.07;;
21046;SDS011;10682;50.874;3.656;2022-09-03T09:12:34;13.38;;;8.75;;
21046;SDS011;10682;50.874;3.656;2022-09-03T09:25:59;11.25;;;7.43;;
21046;SDS011;10682;50.874;3.656;2022-09-03T09:28:33;10.02;;;7.15;;
21046;SDS011;10682;50.874;3.656;2022-09-03T09:31:06;13.13;;;7.63;;
21046;SDS011;10682;50.874;3.656;2022-09-03T09:33:41;12.88;;;8.50;;
21046;SDS011;10682;50.874;3.656;2022-09-03T09:36:10;10.65;;;7.40;;
21046;SDS011;10682;50.874;3.656;2022-09-03T09:38:42;10.93;;;6.72;;
21046;SDS011;10682;50.874;3.656;2022-09-03T09:43:45;13.18;;;7.60;;
21046;SDS011;10682;50.874;3.656;2022-09-03T09:46:20;10.60;;;6.60;;
21046;SDS011;10682;50.874;3.656;2022-09-03T09:48:52;10.27;;;6.93;;
21046;SDS011;10682;50.874;3.656;2022-09-03T09:51:23;10.77;;;7.55;;
21046;SDS011;10682;50.874;3.656;2022-09-03T09:56:43;11.73;;;7.85;;
21046;SDS011;10682;50.874;3.656;2022-09-03T09:59:13;11.85;;;7.60;;
21046;SDS011;10682;50.874;3.656;2022-09-03T10:01:41;12.32;;;7.57;;
21046;SDS011;10682;50.874;3.656;2022-09-03T10:04:22;11.55;;;8.05;;
21046;SDS011;10682;50.874;3.656;2022-09-03T10:07:52;11.23;;;8.25;;
21046;SDS011;10682;50.874;3.656;2022-09-03T10:12:32;14.85;;;10.57;;
21046;SDS011;10682;50.874;3.656;2022-09-03T10:21:14;14.57;;;10.60;;
21046;SDS011;10682;50.874;3.656;2022-09-03T10:27:22;12.82;;;9.98;;
21046;SDS011;10682;50.874;3.656;2022-09-03T10:29:49;18.48;;;11.32;;
21046;SDS011;10682;50.874;3.656;2022-09-03T10:43:39;16.02;;;10.30;;
21046;SDS011;10682;50.874;3.656;2022-09-03T10:46:27;15.98;;;12.38;;
21046;SDS011;10682;50.874;3.656;2022-09-03T10:54:41;20.80;;;16.55;;
21046;SDS011;10682;50.874;3.656;2022-09-03T10:57:30;21.83;;;16.17;;
21046;SDS011;10682;50.874;3.656;2022-09-03T11:00:29;20.20;;;12.18;;
21046;SDS011;10682;50.874;3.656;2022-09-03T11:06:05;19.88;;;13.82;;
21046;SDS011;10682;50.874;3.656;2022-09-03T11:08:42;18.55;;;13.38;;
21046;SDS011;10682;50.874;3.656;2022-09-03T11:11:21;20.70;;;15.13;;
21046;SDS011;10682;50.874;3.656;2022-09-03T11:13:58;16.38;;;12.00;;
21046;SDS011;10682;50.874;3.656;2022-09-03T11:16:38;19.90;;;12.85;;
21046;SDS011;10682;50.874;3.656;2022-09-03T11:19:18;18.60;;;12.88;;
21046;SDS011;10682;50.874;3.656;2022-09-03T11:22:02;21.60;;;13.98;;
21046;SDS011;10682;50.874;3.656;2022-09-03T11:24:31;17.25;;;13.45;;
21046;SDS011;10682;50.874;3.656;2022-09-03T11:29:57;19.05;;;13.55;;
21046;SDS011;10682;50.874;3.656;2022-09-03T11:32:54;17.23;;;12.55;;
21046;SDS011;10682;50.874;3.656;2022-09-03T11:35:27;15.65;;;10.05;;
21046;SDS011;10682;50.874;3.656;2022-09-03T11:41:03;13.55;;;9.52;;
21046;SDS011;10682;50.874;3.656;2022-09-03T11:43:41;12.82;;;8.98;;
21046;SDS011;10682;50.874;3.656;2022-09-03T11:48:52;11.60;;;8.73;;
21046;SDS011;10682;50.874;3.656;2022-09-03T11:51:41;11.77;;;7.95;;
21046;SDS011;10682;50.874;3.656;2022-09-03T11:56:40;8.35;;;5.78;;
21046;SDS011;10682;50.874;3.656;2022-09-03T12:01:41;12.95;;;9.52;;
21046;SDS011;10682;50.874;3.656;2022-09-03T12:04:20;12.10;;;9.23;;
21046;SDS011;10682;50.874;3.656;2022-09-03T12:11:02;10.40;;;6.63;;
21046;SDS011;10682;50.874;3.656;2022-09-03T12:13:57;11.15;;;8.00;;
21046;SDS011;10682;50.874;3.656;2022-09-03T12:16:53;9.80;;;7.40;;
21046;SDS011;10682;50.874;3.656;2022-09-03T12:22:37;11.82;;;6.38;;
21046;SDS011;10682;50.874;3.656;2022-09-03T12:25:09;10.10;;;6.03;;
21046;SDS011;10682;50.874;3.656;2022-09-03T12:27:43;9.93;;;5.68;;
21046;SDS011;10682;50.874;3.656;2022-09-03T12:30:18;7.38;;;5.28;;
21046;SDS011;10682;50.874;3.656;2022-09-03T12:32:49;7.90;;;5.15;;
21046;SDS011;10682;50.874;3.656;2022-09-03T12:35:18;8.25;;;5.40;;
21046;SDS011;10682;50.874;3.656;2022-09-03T12:38:11;7.80;;;5.00;;
21046;SDS011;10682;50.874;3.656;2022-09-03T12:40:43;6.95;;;4.30;;
21046;SDS011;10682;50.874;3.656;2022-09-03T12:43:31;7.20;;;4.38;;
21046;SDS011;10682;50.874;3.656;2022-09-03T12:46:03;7.60;;;4.93;;
21046;SDS011;10682;50.874;3.656;2022-09-03T12:48:36;5.60;;;3.92;;
21046;SDS011;10682;50.874;3.656;2022-09-03T12:51:05;5.25;;;3.78;;
21046;SDS011;10682;50.874;3.656;2022-09-03T12:53:52;5.70;;;4.60;;
21046;SDS011;10682;50.874;3.656;2022-09-03T12:56:20;10.00;;;3.90;;
21046;SDS011;10682;50.874;3.656;2022-09-03T13:01:22;7.43;;;4.00;;
21046;SDS011;10682;50.874;3.656;2022-09-03T13:04:09;5.80;;;4.15;;
21046;SDS011;10682;50.874;3.656;2022-09-03T13:09:37;4.65;;;3.50;;
21046;SDS011;10682;50.874;3.656;2022-09-03T13:12:06;8.70;;;3.95;;
21046;SDS011;10682;50.874;3.656;2022-09-03T13:15:04;4.35;;;3.03;;
21046;SDS011;10682;50.874;3.656;2022-09-03T13:32:08;3.75;;;2.92;;
21046;SDS011;10682;50.874;3.656;2022-09-03T13:38:02;5.07;;;3.17;;
21046;SDS011;10682;50.874;3.656;2022-09-03T13:41:00;5.65;;;3.50;;
21046;SDS011;10682;50.874;3.656;2022-09-03T13:43:51;5.63;;;3.20;;
21046;SDS011;10682;50.874;3.656;2022-09-03T13:46:32;4.53;;;2.92;;
21046;SDS011;10682;50.874;3.656;2022-09-03T13:52:25;4.05;;;3.63;;
21046;SDS011;10682;50.874;3.656;2022-09-03T13:55:26;3.92;;;2.85;;
21046;SDS011;10682;50.874;3.656;2022-09-03T14:03:30;7.25;;;3.40;;
21046;SDS011;10682;50.874;3.656;2022-09-03T14:09:18;4.15;;;3.08;;
21046;SDS011;10682;50.874;3.656;2022-09-03T14:12:16;4.10;;;3.22;;
21046;SDS011;10682;50.874;3.656;2022-09-03T14:15:15;4.70;;;2.72;;
21046;SDS011;10682;50.874;3.656;2022-09-03T14:18:00;4.35;;;2.40;;
21046;SDS011;10682;50.874;3.656;2022-09-03T14:21:02;8.43;;;2.80;;
21046;SDS011;10682;50.874;3.656;2022-09-03T14:23:46;4.35;;;2.50;;
21046;SDS011;10682;50.874;3.656;2022-09-03T14:26:31;4.78;;;2.70;;
21046;SDS011;10682;50.874;3.656;2022-09-03T14:31:45;4.28;;;2.45;;
21046;SDS011;10682;50.874;3.656;2022-09-03T14:40:21;4.55;;;2.80;;
21046;SDS011;10682;50.874;3.656;2022-09-03T14:43:03;4.95;;;2.90;;
21046;SDS011;10682;50.874;3.656;2022-09-03T14:45:50;5.32;;;2.90;;
21046;SDS011;10682;50.874;3.656;2022-09-03T14:57:28;4.68;;;2.53;;
21046;SDS011;10682;50.874;3.656;2022-09-03T15:11:56;3.65;;;2.65;;
21046;SDS011;10682;50.874;3.656;2022-09-03T15:14:38;6.38;;;3.20;;
21046;SDS011;10682;50.874;3.656;2022-09-03T15:25:57;4.28;;;3.20;;
21046;SDS011;10682;50.874;3.656;2022-09-03T15:29:10;6.47;;;2.92;;
21046;SDS011;10682;50.874;3.656;2022-09-03T15:32:07;6.00;;;3.13;;
21046;SDS011;10682;50.874;3.656;2022-09-03T15:37:45;6.25;;;2.67;;
21046;SDS011;10682;50.874;3.656;2022-09-03T15:40:23;4.53;;;2.85;;
21046;SDS011;10682;50.874;3.656;2022-09-03T15:43:09;4.30;;;3.10;;
21046;SDS011;10682;50.874;3.656;2022-09-03T15:45:58;4.55;;;3.00;;
21046;SDS011;10682;50.874;3.656;2022-09-03T15:48:33;6.60;;;3.40;;
21046;SDS011;10682;50.874;3.656;2022-09-03T15:51:24;6.93;;;3.20;;
21046;SDS011;10682;50.874;3.656;2022-09-03T15:57:12;4.43;;;3.15;;
21046;SDS011;10682;50.874;3.656;2022-09-03T16:02:41;4.50;;;3.70;;
21046;SDS011;10682;50.874;3.656;2022-09-03T16:08:31;4.78;;;3.28;;
21046;SDS011;10682;50.874;3.656;2022-09-03T16:13:54;4.10;;;3.42;;
21046;SDS011;10682;50.874;3.656;2022-09-03T16:22:02;6.60;;;3.28;;
21046;SDS011;10682;50.874;3.656;2022-09-03T16:24:49;4.93;;;3.20;;
21046;SDS011;10682;50.874;3.656;2022-09-03T16:27:27;5.88;;;3.40;;
21046;SDS011;10682;50.874;3.656;2022-09-03T16:30:09;4.78;;;3.00;;
21046;SDS011;10682;50.874;3.656;2022-09-03T16:32:52;4.82;;;2.63;;
21046;SDS011;10682;50.874;3.656;2022-09-03T16:38:30;5.75;;;3.40;;
21046;SDS011;10682;50.874;3.656;2022-09-03T16:49:29;6.72;;;3.03;;
21046;SDS011;10682;50.874;3.656;2022-09-03T16:52:14;3.63;;;2.88;;
21046;SDS011;10682;50.874;3.656;2022-09-03T16:58:04;2.53;;;2.30;;
21046;SDS011;10682;50.874;3.656;2022-09-03T17:16:11;6.05;;;3.38;;
21046;SDS011;10682;50.874;3.656;2022-09-03T17:22:02;8.45;;;3.78;;
21046;SDS011;10682;50.874;3.656;2022-09-03T17:25:28;5.50;;;4.18;;
21046;SDS011;10682;50.874;3.656;2022-09-03T17:36:38;4.50;;;3.65;;
21046;SDS011;10682;50.874;3.656;2022-09-03T17:49:07;7.28;;;2.78;;
21046;SDS011;10682;50.874;3.656;2022-09-03T17:54:40;6.68;;;3.50;;
21046;SDS011;10682;50.874;3.656;2022-09-03T17:57:14;7.40;;;3.78;;
21046;SDS011;10682;50.874;3.656;2022-09-03T17:59:59;5.35;;;3.30;;
21046;SDS011;10682;50.874;3.656;2022-09-03T18:08:06;4.70;;;2.30;;
21046;SDS011;10682;50.874;3.656;2022-09-03T18:16:48;4.13;;;2.72;;
21046;SDS011;10682;50.874;3.656;2022-09-03T18:19:36;3.25;;;2.40;;
21046;SDS011;10682;50.874;3.656;2022-09-03T18:22:49;3.63;;;2.63;;
21046;SDS011;10682;50.874;3.656;2022-09-03T18:26:08;3.08;;;2.53;;
21046;SDS011;10682;50.874;3.656;2022-09-03T18:29:00;4.32;;;2.33;;
21046;SDS011;10682;50.874;3.656;2022-09-03T18:32:00;2.60;;;2.40;;
21046;SDS011;10682;50.874;3.656;2022-09-03T18:34:46;4.35;;;2.70;;
21046;SDS011;10682;50.874;3.656;2022-09-03T18:37:31;2.67;;;2.20;;
21046;SDS011;10682;50.874;3.656;2022-09-03T18:40:18;4.10;;;3.05;;
21046;SDS011;10682;50.874;3.656;2022-09-03T18:43:25;6.18;;;3.33;;
21046;SDS011;10682;50.874;3.656;2022-09-03T18:46:44;5.78;;;2.67;;
21046;SDS011;10682;50.874;3.656;2022-09-03T18:59:37;6.43;;;4.10;;
21046;SDS011;10682;50.874;3.656;2022-09-03T19:09:32;7.85;;;3.40;;
21046;SDS011;10682;50.874;3.656;2022-09-03T19:16:12;5.45;;;3.10;;
21046;SDS011;10682;50.874;3.656;2022-09-03T19:19:23;5.65;;;3.83;;
21046;SDS011;10682;50.874;3.656;2022-09-03T19:22:27;3.65;;;3.03;;
21046;SDS011;10682;50.874;3.656;2022-09-03T19:25:21;6.45;;;4.10;;
21046;SDS011;10682;50.874;3.656;2022-09-03T19:28:19;4.60;;;3.42;;
21046;SDS011;10682;50.874;3.656;2022-09-03T19:47:20;5.63;;;3.75;;
21046;SDS011;10682;50.874;3.656;2022-09-03T19:50:23;7.05;;;4.10;;
21046;SDS011;10682;50.874;3.656;2022-09-03T19:53:17;5.10;;;3.80;;
21046;SDS011;10682;50.874;3.656;2022-09-03T19:56:18;7.13;;;4.22;;
21046;SDS011;10682;50.874;3.656;2022-09-03T19:59:13;8.10;;;4.40;;
21046;SDS011;10682;50.874;3.656;2022-09-03T20:02:04;6.78;;;4.28;;
21046;SDS011;10682;50.874;3.656;2022-09-03T20:04:52;5.95;;;3.53;;
21046;SDS011;10682;50.874;3.656;2022-09-03T20:07:46;4.90;;;3.90;;
21046;SDS011;10682;50.874;3.656;2022-09-03T20:10:36;5.75;;;3.80;;
21046;SDS011;10682;50.874;3.656;2022-09-03T20:13:14;4.38;;;3.58;;
21046;SDS011;10682;50.874;3.656;2022-09-03T20:16:05;4.53;;;3.65;;
21046;SDS011;10682;50.874;3.656;2022-09-03T20:24:51;5.70;;;4.40;;
21046;SDS011;10682;50.874;3.656;2022-09-03T20:31:09;9.00;;;4.35;;
21046;SDS011;10682;50.874;3.656;2022-09-03T20:44:51;5.32;;;3.63;;
21046;SDS011;10682;50.874;3.656;2022-09-03T20:47:40;7.03;;;3.92;;
21046;SDS011;10682;50.874;3.656;2022-09-03T20:56:50;6.47;;;3.70;;
21046;SDS011;10682;50.874;3.656;2022-09-03T21:05:28;8.68;;;4.60;;
21046;SDS011;10682;50.874;3.656;2022-09-03T21:11:21;4.57;;;3.92;;
21046;SDS011;10682;50.874;3.656;2022-09-03T21:25:07;7.07;;;4.30;;
21046;SDS011;10682;50.874;3.656;2022-09-03T21:27:42;6.63;;;4.40;;
21046;SDS011;10682;50.874;3.656;2022-09-03T21:30:23;9.10;;;4.20;;
21046;SDS011;10682;50.874;3.656;2022-09-03T21:32:51;5.85;;;4.15;;
21046;SDS011;10682;50.874;3.656;2022-09-03T21:35:32;6.15;;;4.53;;
21046;SDS011;10682;50.874;3.656;2022-09-03T21:38:19;6.97;;;4.53;;
21046;SDS011;10682;50.874;3.656;2022-09-03T21:40:58;10.13;;;4.90;;
21046;SDS011;10682;50.874;3.656;2022-09-03T21:47:00;7.85;;;4.90;;
21046;SDS011;10682;50.874;3.656;2022-09-03T21:49:34;6.93;;;4.43;;
21046;SDS011;10682;50.874;3.656;2022-09-03T21:52:20;12.60;;;5.22;;
21046;SDS011;10682;50.874;3.656;2022-09-03T21:54:58;8.30;;;5.55;;
21046;SDS011;10682;50.874;3.656;2022-09-03T22:00:15;6.70;;;5.50;;
21046;SDS011;10682;50.874;3.656;2022-09-03T22:02:44;8.10;;;5.53;;
21046;SDS011;10682;50.874;3.656;2022-09-03T22:05:13;7.43;;;5.15;;
21046;SDS011;10682;50.874;3.656;2022-09-03T22:07:58;7.60;;;5.63;;